Pledger, Texas
Current Conditions -  °F | °C
As of 1:35 AM on Saturday 25 Oct 2014 (Local Time) from KARM Reporting Station
Clear Clear  
Wind Chill: 15°   Ceiling: Unl
Heat Index: 15°   Visibility: 10mi
Dew Point: 13°   Wind: 0mph
Humidity: 88%   Direction: NA
Pressure: 30.14"   Gusts: NA
Location:  29.18°N, 95.91°W
Report Text: KARM 250635Z AUTO 00000KT 10SM CLR 15/13 A3014 RMK AO2 T01490129
Loading
Personal Weather Stations






























Interactive Weather Map
Tropical Storm Tracking
New forecast layout! Learn more

10-Day Weather Forecast

Advertisements
Track Severe Weather on mobile